KLGA

Laguardia Airport

New York, New York, USA
METAR KLGA 161651Z 06007KT 10SM BKN032 OVC075 00/M04 A3047 RMK AO2 SLP317 T00001044
Observed Flight Rules
Jan-16 @ 16:51 UTC (24 minutes ago) Visual Flight Rules
Wind Visibility Clouds
60° at 7 knots 10 miles
  • Broken at 3,200' AGL
  • Overcast at 7,500' AGL
Temperatures Readings
Current 0°C / 32°F
Dewpoint -4°C / 25°F
Humidity 75%
Altimeter 30.47" Hg
Pressure 1031.7 hPa
Elevation 11
METAR KLGA 161651Z 06007KT 10SM BKN032 OVC075 00/M04 A3047 RMK AO2 SLP317 T00001044
Observed Flight Rules
Jan-16 @ 16:51 UTC
(24 minutes ago)
VFR
Wind Visibility
60° at 7 knots 10 miles
Clouds
  • Broken at 3,200' AGL
  • Overcast at 7,500' AGL
Temperature Dewpoint
0°C / 32°F -4°C / 25°F
Humidity Altimeter Pressure
75% 30.47" Hg 1031.7 hPa